x

South Kodiak - 310nm Ssw Of Kodiak, Ak (46066) Wave Buoy

10:50am - Sun 24th May 2015 All times are UTC.

  • Sig Wave height 8.5ft
  • Swell Direction
  • Peak Period 11s
  • Average Period 8s
  • Wind
    9mph, 11mph gusts
  • Sea Temp 43°f
  • Air Temp 43°f
  • Sea Pressure 1016.3mb

More Historic Weather Station data

Upgrade to MSW Pro to gain access to the past 30 days of data for over 8000 Wavebouys and Weather Stations around the globe.

Join Pro

Comparision Forecast

View Surf forecast
   
Sun 05/24 10:50am 8.5ft 11s 8s 9 11 mph 1016.3mb 43f 43f
9:50am 8ft 12s 7s 9
mph
1016.2mb 43f 43f
8:50am 9.5ft 11s 8s 9 11 mph 1016mb 43f 43f
7:50am 10ft 11s 7s 9 11 mph 1016mb 43f 43f
6:50am 11ft 10s 8s 9 11 mph 1015.9mb 43f 43f
5:50am 9.5ft 10s 7s 11 13 mph 1015.5mb 43f 43f
3:50am 13ft 10s 8s 11 16 mph 1014.3mb 43f 43f
2:50am 11ft 10s 8s 13 16 mph 1014.1mb 43f 43f
1:50am 10ft 9s 7s 13 18 mph 1014mb 43f 43f
12:50am 8.5ft 9s 7s 18 22 mph 1013.8mb 43f 44f
Sat 05/23 11:50pm 8ft 7s 6s 20 22 mph 1013.6mb 43f 44f
10:50pm 8.5ft 7s 6s 22 29 mph 1013.2mb 43f 44f
9:50pm 8ft 7s 6s 25 29 mph 1012.8mb 43f 44f
8:50pm 8ft 7s 6s 25 31 mph 1012.5mb 43f 44f
7:50pm 7.5ft 6s 5s 25 31 mph 1012.5mb 43f 44f
6:50pm 8ft 6s 5s 27 34 mph 1012.6mb 43f 44f
5:50pm 7ft 7s 5s 25 29 mph 1012.6mb 43f 44f
4:50pm 6.5ft 6s 5s 22 27 mph 1012.8mb 43f 44f
3:50pm 6.5ft 6s 5s 22 27 mph 1012.8mb 43f 44f
2:50pm 6ft 7s 6s 22 27 mph 1012.9mb 43f 44f
1:50pm 6ft 8s 6s 20 25 mph 1013.2mb 43f 44f
12:50pm 6.5ft 9s 6s 18 22 mph 1013.5mb 43f 44f
11:50am 6ft 8s 6s 20 25 mph 1013.5mb 43f 44f
10:50am 6ft 9s 6s 18 22 mph 1013.8mb 43f 44f
9:50am 6ft 7s 6s 20 25 mph 1014mb 43f 44f
8:50am 6ft 6s 5s 20 22 mph 1014.3mb 43f 44f
7:50am 6.5ft 7s 6s 18 22 mph 1014.3mb 43f 44f
6:50am 6ft 7s 6s 20 25 mph 1014.1mb 43f 44f
5:50am 7ft 9s 6s 18 22 mph 1014mb 43f 44f
4:50am 7ft 10s 6s 18 20 mph 1013.7mb 43f 44f
3:50am 7.5ft 7s 6s 18 22 mph 1013.7mb 43f 44f
2:50am 8ft 10s 6s 20 22 mph 1013.2mb 43f 44f
1:50am 7.5ft 9s 6s 20 25 mph 1013.3mb 43f 44f
12:50am 7.5ft 11s 6s 25 31 mph 1012.7mb 43f 44f
Fri 05/22 11:50pm 7ft 9s 6s 25 31 mph 1012.1mb 43f 44f
10:50pm 6.5ft 10s 6s 27 36 mph 1011.5mb 43f 44f
9:50pm 5.5ft 9s 6s 22 27 mph 1011.2mb 43f 43f
8:50pm 5.5ft 10s 6s 18 22 mph 1011.1mb 43f 44f
7:50pm 6ft 7s 6s 13 16 mph 1011mb 43f 44f
6:50pm 6ft 10s 6s 13 16 mph 1011.4mb 43f 44f
5:50pm 6ft 10s 6s 16 18 mph 1011.7mb 43f 44f
4:50pm 6.5ft 11s 6s 16 18 mph 1011.8mb 43f 44f
3:50pm 6.5ft 11s 7s 13 16 mph 1012mb 43f 44f
2:50pm 6.5ft 11s 7s 13 16 mph 1012.5mb 43f 44f
1:50pm 6.5ft 11s 7s 16 18 mph 1012.6mb 43f 43f
12:50pm 7ft 11s 7s 13 18 mph 1013.4mb 43f 43f
11:50am 7ft 11s 7s 16 18 mph 1013.9mb 43f 43f
10:50am 7.5ft 11s 7s 16 18 mph 1014.5mb 43f 43f
9:50am 6ft 12s 6s 16 20 mph 1014.7mb 43f 44f
8:50am 6.5ft 10s 6s 16 20 mph 1014.9mb 43f 44f
7:50am 6ft 11s 6s 18 22 mph 1014.8mb 43f 44f
6:50am 6.5ft 10s 6s 18 20 mph 1014.8mb 43f 44f
5:50am 7ft 8s 6s 18 20 mph 1014.3mb 43f 44f
4:50am 7ft 11s 7s 16 20 mph 1014.2mb 43f 44f
3:50am 7ft 9s 7s 16 20 mph 1014.1mb 43f 44f
2:50am 7.5ft 11s 7s 16 20 mph 1013.9mb 43f 44f
1:50am 7ft 11s 7s 16 18 mph 1014mb 43f 44f
12:50am 7.5ft 11s 8s 13 18 mph 1014.3mb 43f 44f
Thu 05/21 11:50pm 7ft 11s 7s 13 16 mph 1014.3mb 43f 43f
10:50pm 7ft 11s 8s 11 13 mph 1014.4mb 43f 43f
9:50pm 7.5ft 11s 8s 9 11 mph 1014.7mb 43f 43f
8:50pm 7ft 11s 8s 9 11 mph 1014.8mb 43f 43f
7:50pm 7ft 11s 7s 4 7 mph 1015mb 43f 43f
6:50pm 7.5ft 11s 7s 7 9 mph 1014.8mb 43f 43f
5:50pm 8ft 9s 7s 4 7 mph 1014.9mb 43f 43f
4:50pm 8ft 12s 7s  -  2 mph 1014.3mb 43f 43f
3:50pm 8ft 8s 7s  -  2 mph 1013.9mb 43f 43f
2:50pm 9ft 11s 7s  -  2 mph 1013.7mb 43f 43f
1:50pm 8.5ft 11s 8s 4
mph
1013.4mb 43f 43f
12:50pm 9ft 10s 7s 4 7 mph 1013mb 43f 43f
11:50am 8.5ft 11s 8s 4 7 mph 1012.8mb 43f 43f
10:50am 9ft 10s 8s 7
mph
1012.6mb 43f 43f
9:50am 8ft 10s 8s 7 9 mph 1012.5mb 43f 43f
8:50am 8ft 12s 7s 9 11 mph 1012.4mb 43f 43f
7:50am 8ft 13s 7s 9 11 mph 1012.1mb 43f 43f
6:50am 8ft 13s 7s 11 13 mph 1011.8mb 43f 43f
5:50am 8.5ft 9s 7s 11 13 mph 1011.3mb 43f 43f
4:50am 9ft 9s 7s 13 16 mph 1011.2mb 43f 43f
3:50am 9ft 9s 7s 13 16 mph 1011mb 43f 44f
2:50am 9ft 9s 7s 16 18 mph 1010.7mb 43f 44f
1:50am 8ft 10s 7s 16 20 mph 1010.6mb 43f 44f
12:50am 9ft 10s 7s 18 20 mph 1010.6mb 43f 44f
Wed 05/20 11:50pm 8.5ft 10s 7s 18 22 mph 1010.6mb 43f 44f
10:50pm 8ft 10s 7s 18 20 mph 1010.5mb 43f 44f
9:50pm 8.5ft 10s 7s 18 22 mph 1010.6mb 43f 44f
8:50pm 8.5ft 9s 6s 20 25 mph 1010.6mb 43f 44f
7:50pm 9ft 9s 6s 18 22 mph 1010.3mb 43f 44f
6:50pm 10ft 9s 7s 20 25 mph 1010.2mb 43f 44f
5:50pm 10ft 10s 7s 20 25 mph 1009.9mb 43f 44f
4:50pm 11.5ft 9s 7s 20 25 mph 1009.5mb 43f 44f
3:50pm 11ft 9s 7s 22 27 mph 1009.1mb 43f 44f
2:50pm 10.5ft 7s 7s 25 29 mph 1009mb 43f 44f
1:50pm 11ft 10s 7s 25 29 mph 1009mb 43f 44f
12:50pm 11.5ft 9s 7s 27 34 mph 1009.2mb 43f 45f
11:50am 11.5ft 7s 7s 27 31 mph 1009.5mb 43f 44f